ADDS METAR Data INFO
IDs: Format: Raw Decoded Include TAF

Data at: 0609 UTC 25 Jun 2018

KCWC 250555Z AUTO 15018G25KT 10SM CLR 30/20 A2978 RMK AO2 T03000198 10324 20284 403700242
KCWC 250535Z AUTO 15019G26KT 10SM CLR 30/20 A2977 RMK AO2 T03020197
KCWC 250515Z AUTO 15018G23KT 10SM CLR 31/20 A2978 RMK AO2 T03050196
KCWC 250455Z AUTO 14015G24KT 10SM CLR 31/20 A2979 RMK AO2 T03070195
KCWC 250435Z AUTO 15015G27KT 10SM CLR 31/19 A2979 RMK AO2 T03100193
KCWC 250415Z AUTO 15014G24KT 10SM CLR 31/19 A2979 RMK AO2 T03130191
KCWC 250355Z AUTO 15016G24KT 10SM CLR 32/19 A2979 RMK AO2 T03160188
KCWC 250335Z AUTO 15015G24KT 10SM CLR 32/19 A2978 RMK AO2 T03200190
KCWC 250315Z AUTO 14015G26KT 10SM CLR 32/19 A2978 RMK AO2 T03230191
KCWC 250255Z AUTO 14018G22KT 10SM CLR 32/19 A2978 RMK AO2 T03230192
KCWC 250235Z AUTO 10010G16KT 10SM CLR 29/20 A2977 RMK AO2 T02850199
KCWC 250215Z AUTO 09011G18KT 10SM CLR 29/20 A2976 RMK AO2 T02870198
KCWC 250155Z AUTO 10013G17KT 10SM CLR 29/20 A2976 RMK AO2 T02920197
KCWC 250135Z AUTO 10014G20KT 10SM CLR 30/20 A2976 RMK AO2 T02960196
KCWC 250115Z AUTO 10016G22KT 10SM CLR 30/20 A2975 RMK AO2 T03020196
KCWC 250055Z AUTO 10016G28KT 10SM CLR 31/20 A2975 RMK AO2 T03080197
KCWC 250035Z AUTO 09018G27KT 10SM CLR 31/20 A2976 RMK AO2 T03120198
KCWC 250015Z AUTO 09019G26KT 10SM CLR 32/20 A2976 RMK AO2 T03160200
KCWC 242355Z AUTO 08015G22KT 10SM CLR 32/20 A2976 RMK AO2 T03230203 10370 20297
KCWC 242335Z AUTO 10017G22KT 10SM CLR 32/20 A2976 RMK AO2 T03240201
KCWC 242315Z AUTO 09016G26KT 10SM CLR 32/20 A2977 RMK AO2 T03200200
KCWC 242255Z AUTO 09017G25KT 10SM CLR 32/20 A2978 RMK AO2 T03200197
KCWC 242235Z AUTO 08018G25KT 10SM CLR 32/19 A2978 RMK AO2 T03170193
KCWC 242215Z AUTO 09020G27KT 10SM CLR 32/20 A2979 RMK AO2 T03200195
KCWC 242155Z AUTO 08020G29KT 10SM CLR 32/19 A2980 RMK AO2 T03160188
KCWC 242135Z AUTO 07017KT 10SM CLR 31/19 A2981 RMK AO2 T03080185
KCWC 242115Z AUTO 06019G27KT 10SM SCT075 SCT095 31/19 A2981 RMK AO2 T03100189
KCWC 242055Z AUTO 05017G29KT 10SM SCT075 BKN095 30/18 A2981 RMK AO2 LTG DSNT NE T02980180
KCWC 242035Z AUTO 04021G29KT 10SM BKN075 BKN095 30/18 A2981 RMK AO2 T03020180
KCWC 242015Z AUTO 12003KT 10SM BKN075 BKN085 36/19 A2981 RMK AO2 T03640187
KCWC 241955Z AUTO 20003KT 10SM SCT075 37/19 A2981 RMK AO2 LTG DSNT N AND NW T03700187
KCWC 241935Z AUTO 20004KT 10SM CLR 36/19 A2980 RMK AO2 T03570185
KCWC 241915Z AUTO 17015G25KT 10SM CLR 37/19 A2977 RMK AO2 LTG DSNT N T03660190
KCWC 241855Z AUTO 15019G23KT 10SM CLR 36/20 A2974 RMK AO2 LTG DSNT N T03600197
KCWC 241835Z AUTO 17019G25KT 10SM CLR 36/20 A2975 RMK AO2 T03550201
KCWC 241815Z AUTO 17017G25KT 10SM CLR 35/20 A2977 RMK AO2 T03490198
KCWC 241755Z AUTO 15022G33KT 10SM CLR 34/20 A2978 RMK AO2 T03440203 10344 20244
KCWC 241735Z AUTO 15021G28KT 10SM CLR 34/21 A2978 RMK AO2 T03350207
KCWC 241715Z AUTO 15021G27KT 10SM CLR 33/21 A2979 RMK AO2 T03260208
KCWC 241655Z AUTO 15018G26KT 10SM SCT038 32/21 A2981 RMK AO2 T03210210
KCWC 241635Z AUTO 15020G24KT 10SM SCT036 SCT043 32/21 A2981 RMK AO2 T03170212
KCWC 241615Z AUTO 14017G24KT 10SM SCT038 SCT043 32/22 A2982 RMK AO2 T03150215
KCWC 241555Z AUTO 15015G23KT 10SM BKN038 BKN043 31/22 A2982 RMK AO2 T03080216
KCWC 241535Z AUTO 12017G22KT 10SM SCT032 SCT041 30/22 A2983 RMK AO2 T03000217
KCWC 241515Z AUTO 14017G21KT 10SM SCT032 SCT041 30/22 A2983 RMK AO2 T03000220
KCWC 241455Z AUTO 14015G24KT 10SM SCT034 BKN043 30/22 A2983 RMK AO2 T02990221
KCWC 241435Z AUTO 13016G22KT 10SM BKN037 BKN045 29/22 A2984 RMK AO2 T02930220
KCWC 241415Z AUTO 13013G19KT 10SM BKN037 OVC043 29/21 A2983 RMK AO2 T02850210
KCWC 241355Z AUTO 13012G21KT 10SM OVC037 29/22 A2982 RMK AO2 T02850222
KCWC 241335Z AUTO 16007KT 10SM OVC035 28/22 A2981 RMK AO2 T02820222
KCWC 241315Z AUTO 16007KT 10SM SCT035 28/22 A2981 RMK AO2 T02800218
KCWC 241255Z AUTO 12008G14KT 10SM CLR 27/21 A2980 RMK AO2 T02650211
KCWC 241235Z AUTO 11011KT 10SM CLR 26/21 A2980 RMK AO2 T02570212
KCWC 241215Z AUTO 10009KT 10SM CLR 25/21 A2981 RMK AO2 T02500212
KCWC 241155Z AUTO 12008KT 10SM CLR 24/21 A2980 RMK AO2 LTG DSNT N T02430210 10305 20242
KCWC 241135Z AUTO 08003KT 10SM CLR 25/21 A2979 RMK AO2 T02450210
KCWC 241115Z AUTO 04007KT 10SM CLR 25/21 A2978 RMK AO2 T02490210
KCWC 241055Z AUTO 09004KT 10SM CLR 25/21 A2976 RMK AO2 T02520210
KCWC 241035Z AUTO 05006KT 10SM CLR 26/21 A2976 RMK AO2 T02560210
KCWC 241015Z AUTO 12003KT 10SM CLR 27/21 A2972 RMK AO2 T02650211
KCWC 240955Z AUTO 13004KT 10SM CLR 27/21 A2970 RMK AO2 T02670211
KCWC 240935Z AUTO 13007KT 10SM CLR 27/21 A2969 RMK AO2 T02660212
KCWC 240915Z AUTO 00000KT 10SM CLR 27/21 A2967 RMK AO2 T02680211
KCWC 240855Z AUTO 15005KT 10SM CLR 27/21 A2966 RMK AO2 T02730212
KCWC 240835Z AUTO 14009G14KT 10SM CLR 28/21 A2965 RMK AO2 T02750210
KCWC 240815Z AUTO 14009G18KT 10SM CLR 28/21 A2967 RMK AO2 T02770210
KCWC 240755Z AUTO 13009G18KT 10SM CLR 28/21 A2968 RMK AO2 T02800211
KCWC 240735Z AUTO 13007G16KT 10SM CLR 28/21 A2970 RMK AO2 T02820211
KCWC 240715Z AUTO 12008G15KT 10SM CLR 29/21 A2970 RMK AO2 T02870210
KCWC 240655Z AUTO 15009KT 10SM CLR 29/21 A2970 RMK AO2 LTG DSNT SE T02910210
KCWC 240635Z AUTO 15011G17KT 10SM CLR 30/21 A2970 RMK AO2 T02960208
KCWC 240615Z AUTO 14011G18KT 10SM CLR 30/20 A2971 RMK AO2 T03010204
KCWC 240555Z AUTO 16012G15KT 10SM CLR 31/20 A2972 RMK AO2 LTG DSNT SE T03050202 10354 20305 403570221
KCWC 240535Z AUTO 15010G18KT 10SM CLR 31/20 A2974 RMK AO2 LTG DSNT SE AND S T03070200
KCWC 240515Z AUTO 14013G21KT 10SM SCT100 31/20 A2976 RMK AO2 LTG DSNT S T03100199
KCWC 240455Z AUTO 15014G20KT 10SM SCT100 31/20 A2976 RMK AO2 T03120198
KCWC 240435Z AUTO 15016G22KT 10SM CLR 32/20 A2976 RMK AO2 LTG DSNT S T03150197
KCWC 240415Z AUTO 15019G24KT 10SM VCTS CLR 32/20 A2972 RMK AO2 LTG DSNT S AND SW T03160197
KCWC 240355Z AUTO 15013G19KT 10SM CLR 32/20 A2973 RMK AO2 LTG DSNT S AND SW T03160197
KCWC 240335Z AUTO 13014G21KT 10SM VCTS CLR 32/19 A2973 RMK AO2 LTG DSNT S AND SW T03180194
KCWC 240315Z AUTO 14013G18KT 10SM VCTS CLR 32/19 A2972 RMK AO2 LTG DSNT S AND SW T03200191
KCWC 240255Z AUTO 13013G21KT 10SM TS CLR 32/19 A2971 RMK AO2 LTG DSNT SW T03210190
KCWC 240235Z AUTO 11016G21KT 10SM SCT100 32/19 A2969 RMK AO2 LTG DSNT SW AND W T03220190
KCWC 240215Z AUTO 11010G21KT 10SM CLR 32/19 A2969 RMK AO2 LTG DSNT NW T03240190
KCWC 240155Z AUTO 11010G21KT 10SM CLR 33/19 A2970 RMK AO2 LTG DSNT NW T03260191
KCWC 240135Z AUTO 11011G21KT 10SM CLR 33/20 A2969 RMK AO2 T03300195
KCWC 240115Z AUTO 11011G21KT 10SM CLR 34/20 A2969 RMK AO2 LTG DSNT SW T03370195
KCWC 240055Z AUTO 12011G22KT 10SM CLR 34/20 A2970 RMK AO2 LTG DSNT SW T03430196
KCWC 240035Z AUTO 13015G20KT 10SM CLR 35/20 A2970 RMK AO2 T03500200
KCWC 240015Z AUTO 11014G22KT 10SM CLR 35/20 A2971 RMK AO2 T03510204
KCWC 232355Z AUTO 13016G21KT 10SM CLR 35/21 A2971 RMK AO2 T03540210 10357 20317
KCWC 232335Z AUTO 12012G16KT 10SM CLR 36/21 A2971 RMK AO2 T03550212
KCWC 232315Z AUTO 13016G23KT 10SM CLR 36/21 A2972 RMK AO2 T03550213
KCWC 232255Z AUTO 12014G21KT 10SM SCT050 36/22 A2973 RMK AO2 T03550215
KCWC 232235Z AUTO 13015G22KT 10SM SCT050 36/22 A2974 RMK AO2 T03550217
KCWC 232215Z AUTO 13014G21KT 10SM SCT050 SCT065 35/22 A2975 RMK AO2 T03530216
KCWC 232155Z AUTO 14013G19KT 10SM SCT050 SCT080 35/22 A2975 RMK AO2 T03480218
KCWC 232135Z AUTO 14015G18KT 10SM SCT050 SCT090 35/22 A2975 RMK AO2 T03500217
KCWC 232115Z AUTO 13014G20KT 10SM SCT050 BKN090 34/22 A2976 RMK AO2 T03370215
KCWC 232055Z AUTO 13014G18KT 10SM SCT090 35/22 A2976 RMK AO2 T03460217
KCWC 232035Z AUTO 14018G23KT 10SM SCT090 34/21 A2977 RMK AO2 T03420214
KCWC 232015Z AUTO 13013G23KT 10SM SCT046 SCT085 34/21 A2978 RMK AO2 T03440212
KCWC 231955Z AUTO 12010G20KT 10SM SCT046 BKN050 34/22 A2978 RMK AO2 T03400215
KCWC 231935Z AUTO 11009G24KT 10SM SCT048 BKN060 BKN070 33/21 A2979 RMK AO2 T03270212
KCWC 231915Z AUTO 12011G17KT 10SM SCT047 SCT070 33/21 A2980 RMK AO2 T03310211
KCWC 231855Z AUTO 13012G20KT 10SM SCT060 33/21 A2981 RMK AO2 T03290211
KCWC 231835Z AUTO 14016G23KT 10SM CLR 33/21 A2982 RMK AO2 T03320211
KCWC 231815Z AUTO 14012G23KT 10SM CLR 32/21 A2982 RMK AO2 T03200209